Weather at Nashville International Airport

Public forecast

Using degrees Fahrenheit for public forecast. Weather courtesy of forecast.io.

Current aviation weather report (METAR) for Nashville International Airport

Retrieved 2021/06/23 10:53 UTC (44 minutes ago):

KBNA 231053Z 18003KT 10SM FEW200 14/11 A3013 RMK AO2 SLP198 T01390111 /

Aviation forecast (TAF) for Nashville International Airport

Retrieved 2021/06/23 06:22 UTC (5 hours ago):

TAF KBNA 230520Z 2306/2406 03005KT P6SM SKC